createdAt,value
2023-12-30T00:00:37.941Z,99720.50
2023-12-30T00:03:05.193Z,99720.81
2023-12-30T00:05:32.275Z,99719.50
2023-12-30T00:07:59.340Z,99717.94
2023-12-30T00:10:26.558Z,99712.25
2023-12-30T00:12:53.737Z,99709.94
2023-12-30T00:15:22.104Z,99715.94
2023-12-30T00:17:49.322Z,99710.75
2023-12-30T00:20:16.345Z,99704.81
2023-12-30T00:22:43.384Z,99709.22
2023-12-30T00:25:11.490Z,99708.72
2023-12-30T00:27:38.675Z,99713.91
2023-12-30T00:30:06.618Z,99715.72
2023-12-30T00:32:33.992Z,99724.88
2023-12-30T00:35:01.303Z,99720.69
2023-12-30T00:37:28.410Z,99720.22
2023-12-30T00:39:55.382Z,99726.97
2023-12-30T00:42:22.516Z,99726.41
2023-12-30T00:44:49.526Z,99729.81
2023-12-30T00:47:16.343Z,99722.84
2023-12-30T00:49:43.401Z,99720.28
2023-12-30T00:52:11.346Z,99727.66
2023-12-30T00:54:44.630Z,99730.53
2023-12-30T00:57:17.568Z,99720.91
2023-12-30T00:59:44.577Z,99721.69
2023-12-30T01:02:11.572Z,99719.34
2023-12-30T01:04:38.744Z,99723.00
2023-12-30T01:07:05.617Z,99727.16
2023-12-30T01:09:32.764Z,99723.22
2023-12-30T01:11:59.778Z,99721.16
2023-12-30T01:14:26.540Z,99726.13
2023-12-30T01:16:53.319Z,99723.06
2023-12-30T01:19:20.180Z,99719.38
2023-12-30T01:21:47.792Z,99720.47
2023-12-30T01:24:14.664Z,99721.53
2023-12-30T01:26:41.651Z,99717.91
2023-12-30T01:29:08.892Z,99725.47
2023-12-30T01:31:35.989Z,99721.59
2023-12-30T01:34:03.182Z,99722.13
2023-12-30T01:36:30.195Z,99719.50
2023-12-30T01:38:57.278Z,99715.16
2023-12-30T01:41:24.185Z,99720.09
2023-12-30T01:43:51.261Z,99704.50
2023-12-30T01:46:18.285Z,99700.88
2023-12-30T01:48:45.764Z,99708.66
2023-12-30T01:51:24.372Z,99706.59
2023-12-30T01:53:53.831Z,99703.00
2023-12-30T01:56:21.887Z,99711.88
2023-12-30T01:58:53.737Z,99699.22
2023-12-30T02:01:23.856Z,99702.31
2023-12-30T02:03:51.193Z,99695.84
2023-12-30T02:06:18.310Z,99694.31
2023-12-30T02:08:45.343Z,99694.88
2023-12-30T02:11:13.294Z,99695.34
2023-12-30T02:13:43.926Z,99690.16
2023-12-30T02:16:11.985Z,99700.03
2023-12-30T02:18:39.434Z,99689.13
2023-12-30T02:21:06.616Z,99696.66
2023-12-30T02:23:33.607Z,99692.78
2023-12-30T02:26:00.380Z,99688.16
2023-12-30T02:28:27.374Z,99684.53
2023-12-30T02:30:54.485Z,99683.81
2023-12-30T02:33:21.571Z,99681.44
2023-12-30T02:35:48.399Z,99680.94
2023-12-30T02:38:15.480Z,99683.50
2023-12-30T02:40:42.331Z,99685.09
2023-12-30T02:43:09.461Z,99684.25
2023-12-30T02:45:36.804Z,99689.97
2023-12-30T02:48:04.399Z,99688.16
2023-12-30T02:50:31.210Z,99683.50
2023-12-30T02:52:58.317Z,99681.66
2023-12-30T02:55:25.408Z,99691.78
2023-12-30T02:57:52.470Z,99687.84
2023-12-30T03:00:19.845Z,99681.38
2023-12-30T03:02:47.272Z,99679.03
2023-12-30T03:05:14.734Z,99680.84
2023-12-30T03:07:41.960Z,99676.16
2023-12-30T03:10:09.885Z,99677.44
2023-12-30T03:12:37.034Z,99678.19
2023-12-30T03:15:04.028Z,99676.13
2023-12-30T03:17:31.132Z,99670.38
2023-12-30T03:19:58.299Z,99672.25
2023-12-30T03:22:25.958Z,99676.91
2023-12-30T03:24:53.096Z,99681.56
2023-12-30T03:27:20.240Z,99685.94
2023-12-30T03:29:47.315Z,99678.38
2023-12-30T03:32:14.921Z,99685.38
2023-12-30T03:34:42.039Z,99682.78
2023-12-30T03:37:09.074Z,99679.94
2023-12-30T03:39:36.485Z,99679.16
2023-12-30T03:42:03.662Z,99679.63
2023-12-30T03:44:30.727Z,99677.56
2023-12-30T03:46:57.798Z,99668.22
2023-12-30T03:49:25.180Z,99672.63
2023-12-30T03:51:52.427Z,99663.28
2023-12-30T03:54:19.386Z,99660.19
2023-12-30T03:56:48.367Z,99668.25
2023-12-30T03:59:15.491Z,99667.19
2023-12-30T04:01:44.172Z,99668.25
2023-12-30T04:04:11.711Z,99676.81
2023-12-30T04:06:38.801Z,99672.97
2023-12-30T04:09:05.665Z,99688.31
2023-12-30T04:11:32.458Z,99674.28
2023-12-30T04:13:59.574Z,99676.59
2023-12-30T04:16:26.672Z,99685.97
2023-12-30T04:18:53.986Z,99682.31
2023-12-30T04:21:21.217Z,99683.91
2023-12-30T04:23:48.315Z,99684.16
2023-12-30T04:26:15.343Z,99680.31
2023-12-30T04:28:42.399Z,99682.41
2023-12-30T04:31:09.506Z,99675.41
2023-12-30T04:33:36.708Z,99680.84
2023-12-30T04:36:04.299Z,99687.13
2023-12-30T04:38:31.108Z,99673.66
2023-12-30T04:40:57.895Z,99675.72
2023-12-30T04:43:24.904Z,99684.13
2023-12-30T04:45:51.955Z,99678.94
2023-12-30T04:48:19.082Z,99689.53
2023-12-30T04:50:45.929Z,99696.25
2023-12-30T04:53:12.806Z,99680.91
2023-12-30T04:55:39.832Z,99691.25
2023-12-30T04:58:06.887Z,99699.59
2023-12-30T05:00:34.647Z,99694.16
2023-12-30T05:03:01.780Z,99685.34
2023-12-30T05:05:29.173Z,99704.09
2023-12-30T05:07:56.218Z,99697.59
2023-12-30T05:10:23.295Z,99700.97
2023-12-30T05:12:50.956Z,99703.09
2023-12-30T05:15:18.149Z,99697.13
2023-12-30T05:17:45.345Z,99697.91
2023-12-30T05:20:13.925Z,99705.19
2023-12-30T05:22:41.766Z,99698.97
2023-12-30T05:25:09.348Z,99704.41
2023-12-30T05:27:36.982Z,99706.50
2023-12-30T05:30:05.564Z,99714.28
2023-12-30T05:32:32.648Z,99711.16
2023-12-30T05:35:00.591Z,99711.69
2023-12-30T05:37:27.517Z,99726.44
2023-12-30T05:39:55.147Z,99719.72
2023-12-30T05:42:22.326Z,99723.88
2023-12-30T05:44:49.306Z,99719.97
2023-12-30T05:47:16.306Z,99717.91
2023-12-30T05:49:43.159Z,99727.25
2023-12-30T05:52:10.298Z,99730.34
2023-12-30T05:54:37.331Z,99728.78
2023-12-30T05:57:04.563Z,99726.50
2023-12-30T05:59:31.466Z,99736.59
2023-12-30T06:02:00.089Z,99735.28
2023-12-30T06:04:27.335Z,99733.47
2023-12-30T06:06:55.342Z,99737.63
2023-12-30T06:09:22.497Z,99733.22
2023-12-30T06:11:50.013Z,99751.63
2023-12-30T06:14:17.268Z,99744.91
2023-12-30T06:16:44.304Z,99744.88
2023-12-30T06:19:12.884Z,99753.16
2023-12-30T06:21:40.702Z,99766.13
2023-12-30T06:24:07.743Z,99759.41
2023-12-30T06:26:39.190Z,99769.78
2023-12-30T06:29:07.835Z,99773.38
2023-12-30T06:31:34.885Z,99768.72
2023-12-30T06:34:01.989Z,99762.50
2023-12-30T06:36:29.005Z,99764.59
2023-12-30T06:38:56.029Z,99765.38
2023-12-30T06:41:23.083Z,99767.44
2023-12-30T06:43:50.162Z,99767.94
2023-12-30T06:46:21.374Z,99776.47
2023-12-30T06:48:48.573Z,99783.22
2023-12-30T06:51:15.506Z,99792.53
2023-12-30T06:53:42.485Z,99789.94
2023-12-30T06:56:09.464Z,99786.53
2023-12-30T06:58:37.118Z,99792.50
2023-12-30T07:01:06.138Z,99799.25
2023-12-30T07:03:33.544Z,99808.06
2023-12-30T07:06:00.737Z,99820.53
2023-12-30T07:08:27.864Z,99825.44
2023-12-30T07:10:54.954Z,99829.59
2023-12-30T07:13:22.067Z,99829.84
2023-12-30T07:15:49.092Z,99824.91
2023-12-30T07:18:16.387Z,99833.22
2023-12-30T07:20:43.503Z,99830.34
2023-12-30T07:23:10.560Z,99824.88
2023-12-30T07:25:37.691Z,99828.75
2023-12-30T07:28:04.938Z,99833.38
2023-12-30T07:30:32.024Z,99832.81
2023-12-30T07:32:59.310Z,99835.09
2023-12-30T07:35:28.487Z,99831.63
2023-12-30T07:37:55.348Z,99842.41
2023-12-30T07:40:22.627Z,99849.78
2023-12-30T07:42:49.494Z,99849.34
2023-12-30T07:45:16.354Z,99862.75
2023-12-30T07:47:43.369Z,99849.19
2023-12-30T07:50:10.379Z,99856.41
2023-12-30T07:52:37.494Z,99849.75
2023-12-30T07:55:04.896Z,99857.06
2023-12-30T07:57:31.935Z,99863.28
2023-12-30T07:59:59.004Z,99869.97
2023-12-30T08:02:25.869Z,99865.34
2023-12-30T08:04:55.644Z,99865.47
2023-12-30T08:07:22.983Z,99865.13
2023-12-30T08:09:50.045Z,99866.38
2023-12-30T08:12:17.050Z,99873.88
2023-12-30T08:14:43.849Z,99874.28
2023-12-30T08:17:10.720Z,99881.06
2023-12-30T08:19:37.871Z,99888.44
2023-12-30T08:22:04.910Z,99881.59
2023-12-30T08:24:31.636Z,99888.59
2023-12-30T08:26:58.511Z,99882.38
2023-12-30T08:29:25.569Z,99883.88
2023-12-30T08:31:52.389Z,99882.88
2023-12-30T08:34:21.884Z,99890.00
2023-12-30T08:36:48.774Z,99881.97
2023-12-30T08:39:15.773Z,99886.19
2023-12-30T08:41:42.783Z,99894.66
2023-12-30T08:44:10.019Z,99902.59
2023-12-30T08:46:37.653Z,99901.63
2023-12-30T08:49:07.411Z,99896.53
2023-12-30T08:51:36.121Z,99898.81
2023-12-30T08:54:03.125Z,99909.16
2023-12-30T08:56:34.567Z,99908.59
2023-12-30T08:59:01.974Z,99905.28
2023-12-30T09:01:28.968Z,99911.13
2023-12-30T09:03:56.157Z,99915.09
2023-12-30T09:06:23.208Z,99911.56
2023-12-30T09:08:50.295Z,99920.28
2023-12-30T09:11:20.778Z,99915.44
2023-12-30T09:13:48.819Z,99914.97
2023-12-30T09:16:15.732Z,99923.31
2023-12-30T09:18:43.397Z,99921.53
2023-12-30T09:21:10.800Z,99919.66
2023-12-30T09:23:38.604Z,99912.19
2023-12-30T09:26:05.856Z,99910.78
2023-12-30T09:28:33.400Z,99909.28
2023-12-30T09:31:00.963Z,99903.81
2023-12-30T09:33:27.982Z,99909.16
2023-12-30T09:35:56.040Z,99901.59
2023-12-30T09:38:26.559Z,99897.06
2023-12-30T09:40:55.402Z,99901.19
2023-12-30T09:43:25.125Z,99900.56
2023-12-30T09:45:52.970Z,99893.88
2023-12-30T09:48:26.903Z,99898.59
2023-12-30T09:50:59.918Z,99901.13
2023-12-30T09:53:28.102Z,99884.56
2023-12-30T09:55:55.268Z,99893.84
2023-12-30T09:58:23.750Z,99901.66
2023-12-30T10:00:51.198Z,99906.88
2023-12-30T10:03:20.085Z,99901.84
2023-12-30T10:05:48.512Z,99902.16
2023-12-30T10:08:16.359Z,99894.56
2023-12-30T10:10:54.735Z,99897.31
2023-12-30T10:13:27.249Z,99896.75
2023-12-30T10:15:56.429Z,99882.13
2023-12-30T10:18:23.714Z,99885.22
2023-12-30T10:20:50.821Z,99896.50
2023-12-30T10:23:17.774Z,99887.78
2023-12-30T10:25:46.930Z,99881.84
2023-12-30T10:28:14.467Z,99882.03
2023-12-30T10:30:41.649Z,99879.09
2023-12-30T10:33:10.739Z,99868.59
2023-12-30T10:35:42.377Z,99880.44
2023-12-30T10:38:10.688Z,99872.88
2023-12-30T10:40:37.685Z,99873.38
2023-12-30T10:43:05.645Z,99874.72
2023-12-30T10:45:32.648Z,99875.09
2023-12-30T10:48:01.068Z,99865.94
2023-12-30T10:50:28.815Z,99862.13
2023-12-30T10:53:06.549Z,99866.88
2023-12-30T10:55:34.807Z,99862.72
2023-12-30T10:58:14.898Z,99860.78
2023-12-30T11:00:43.921Z,99854.84
2023-12-30T11:03:11.240Z,99857.66
2023-12-30T11:06:06.130Z,99854.59
2023-12-30T11:08:33.273Z,99851.00
2023-12-30T11:11:03.768Z,99847.66
2023-12-30T11:13:37.678Z,99843.63
2023-12-30T11:16:15.347Z,99843.03
2023-12-30T11:18:54.877Z,99843.16
2023-12-30T11:21:37.653Z,99848.59
2023-12-30T11:24:06.576Z,99848.81
2023-12-30T11:26:35.357Z,99846.09
2023-12-30T11:29:03.133Z,99841.50
2023-12-30T11:31:35.256Z,99843.13
2023-12-30T11:34:03.057Z,99833.19
2023-12-30T11:36:30.361Z,99838.81
2023-12-30T11:38:59.197Z,99842.25
2023-12-30T11:41:27.462Z,99820.28
2023-12-30T11:43:59.439Z,99822.72
2023-12-30T11:46:29.810Z,99824.41
2023-12-30T11:49:00.295Z,99821.09
2023-12-30T11:51:31.742Z,99820.16
2023-12-30T11:54:04.054Z,99824.13
2023-12-30T11:56:31.273Z,99818.84
2023-12-30T11:58:58.530Z,99808.53
2023-12-30T12:01:25.693Z,99811.13
2023-12-30T12:03:53.931Z,99814.94
2023-12-30T12:06:20.901Z,99821.03
2023-12-30T12:08:48.630Z,99821.78
2023-12-30T12:11:15.537Z,99822.13
2023-12-30T12:13:42.566Z,99817.50
2023-12-30T12:16:09.854Z,99823.91
2023-12-30T12:18:37.574Z,99811.84
2023-12-30T12:21:12.548Z,99816.44
2023-12-30T12:23:39.379Z,99810.34
2023-12-30T12:26:08.111Z,99817.94
2023-12-30T12:28:35.237Z,99817.25
2023-12-30T12:31:03.295Z,99815.00
2023-12-30T12:33:30.774Z,99820.19
2023-12-30T12:35:57.662Z,99837.44
2023-12-30T12:38:24.896Z,99830.53
2023-12-30T12:40:52.507Z,99826.50
2023-12-30T12:43:19.712Z,99829.78
2023-12-30T12:45:46.512Z,99829.38
2023-12-30T12:48:13.540Z,99811.94
2023-12-30T12:50:40.702Z,99820.28
2023-12-30T12:53:07.456Z,99810.75
2023-12-30T12:55:34.334Z,99811.41
2023-12-30T12:58:01.437Z,99815.13
2023-12-30T13:00:28.491Z,99820.31
2023-12-30T13:02:55.470Z,99813.16
2023-12-30T13:05:23.688Z,99814.13
2023-12-30T13:07:51.182Z,99813.34
2023-12-30T13:10:37.581Z,99816.47
2023-12-30T13:13:08.218Z,99824.84
2023-12-30T13:15:36.027Z,99823.63
2023-12-30T13:18:06.549Z,99813.88
2023-12-30T13:20:33.699Z,99818.22
2023-12-30T13:23:04.551Z,99821.16
2023-12-30T13:25:31.891Z,99826.00
2023-12-30T13:27:59.490Z,99819.00
2023-12-30T13:30:26.443Z,99826.03
2023-12-30T13:33:02.627Z,99834.53
2023-12-30T13:35:39.965Z,99819.56
2023-12-30T13:38:13.000Z,99827.84
2023-12-30T13:40:42.244Z,99823.91
2023-12-30T13:43:10.588Z,99829.50
2023-12-30T13:45:48.137Z,99830.63
2023-12-30T13:48:34.043Z,99823.00
2023-12-30T13:51:03.077Z,99823.88
2023-12-30T13:53:30.255Z,99827.97
2023-12-30T13:55:59.274Z,99831.84
2023-12-30T13:58:26.160Z,99832.38
2023-12-30T14:00:53.213Z,99838.47
2023-12-30T14:03:20.519Z,99835.94
2023-12-30T14:05:48.918Z,99844.44
2023-12-30T14:08:28.240Z,99842.03
2023-12-30T14:10:55.610Z,99847.94
2023-12-30T14:13:24.518Z,99848.56
2023-12-30T14:15:52.820Z,99838.22
2023-12-30T14:18:20.470Z,99844.00
2023-12-30T14:20:48.092Z,99851.44
2023-12-30T14:23:15.403Z,99846.91
2023-12-30T14:25:42.459Z,99845.38
2023-12-30T14:28:10.759Z,99845.78
2023-12-30T14:30:39.826Z,99842.31
2023-12-30T14:33:07.374Z,99851.38
2023-12-30T14:35:34.649Z,99846.25
2023-12-30T14:38:02.801Z,99852.66
2023-12-30T14:40:30.039Z,99843.78
2023-12-30T14:42:57.162Z,99853.09
2023-12-30T14:45:24.243Z,99841.25
2023-12-30T14:47:51.263Z,99847.16
2023-12-30T14:50:18.647Z,99848.09
2023-12-30T14:52:45.802Z,99845.66
2023-12-30T14:55:12.851Z,99847.25
2023-12-30T14:57:41.132Z,99846.63
2023-12-30T15:00:15.482Z,99847.88
2023-12-30T15:02:44.058Z,99847.69
2023-12-30T15:05:15.292Z,99863.41
2023-12-30T15:07:44.572Z,99854.94
2023-12-30T15:10:14.947Z,99864.91
2023-12-30T15:12:44.035Z,99862.84
2023-12-30T15:15:12.814Z,99864.59
2023-12-30T15:17:40.065Z,99874.72
2023-12-30T15:20:09.578Z,99865.78
2023-12-30T15:22:36.791Z,99864.72
2023-12-30T15:25:04.003Z,99870.47
2023-12-30T15:27:31.419Z,99872.78
2023-12-30T15:29:58.553Z,99874.34
2023-12-30T15:32:25.730Z,99873.28
2023-12-30T15:34:52.668Z,99874.97
2023-12-30T15:37:19.783Z,99865.09
2023-12-30T15:39:46.824Z,99873.59
2023-12-30T15:42:13.842Z,99878.84
2023-12-30T15:44:41.032Z,99872.84
2023-12-30T15:47:10.923Z,99879.31
2023-12-30T15:49:43.127Z,99885.31
2023-12-30T15:52:11.592Z,99884.84
2023-12-30T15:54:39.663Z,99884.81
2023-12-30T15:57:06.837Z,99881.06
2023-12-30T15:59:33.957Z,99886.31
2023-12-30T16:02:01.338Z,99883.97
2023-12-30T16:04:28.380Z,99878.38
2023-12-30T16:06:55.294Z,99880.06
2023-12-30T16:09:22.410Z,99884.66
2023-12-30T16:11:50.152Z,99882.44
2023-12-30T16:14:17.044Z,99887.53
2023-12-30T16:16:47.161Z,99888.13
2023-12-30T16:19:19.791Z,99890.88
2023-12-30T16:21:51.008Z,99893.41
2023-12-30T16:24:18.683Z,99893.53
2023-12-30T16:26:46.016Z,99894.72
2023-12-30T16:29:13.070Z,99891.50
2023-12-30T16:31:40.354Z,99901.97
2023-12-30T16:34:07.639Z,99905.47
2023-12-30T16:36:36.357Z,99897.94
2023-12-30T16:39:03.644Z,99902.03
2023-12-30T16:41:30.826Z,99890.63
2023-12-30T16:43:58.831Z,99889.50
2023-12-30T16:46:25.948Z,99894.22
2023-12-30T16:48:52.971Z,99880.97
2023-12-30T16:51:20.043Z,99890.00
2023-12-30T16:53:47.067Z,99891.84
2023-12-30T16:56:16.714Z,99891.66
2023-12-30T16:58:43.560Z,99904.38
2023-12-30T17:01:10.446Z,99896.31
2023-12-30T17:03:37.198Z,99896.91
2023-12-30T17:06:04.839Z,99897.50
2023-12-30T17:08:31.971Z,99898.09
2023-12-30T17:10:59.530Z,99894.53
2023-12-30T17:13:34.898Z,99893.56
2023-12-30T17:16:06.941Z,99895.13
2023-12-30T17:18:33.807Z,99899.25
2023-12-30T17:21:00.826Z,99891.72
2023-12-30T17:23:27.904Z,99902.00
2023-12-30T17:25:54.930Z,99906.72
2023-12-30T17:28:21.712Z,99904.72
2023-12-30T17:30:49.278Z,99910.03
2023-12-30T17:33:16.481Z,99907.41
2023-12-30T17:35:44.339Z,99895.41
2023-12-30T17:38:11.287Z,99902.00
2023-12-30T17:40:39.170Z,99902.41
2023-12-30T17:43:06.667Z,99910.34
2023-12-30T17:45:33.898Z,99920.78
2023-12-30T17:48:00.971Z,99925.53
2023-12-30T17:50:27.982Z,99920.03
2023-12-30T17:52:54.769Z,99925.81
2023-12-30T17:55:21.780Z,99926.97
2023-12-30T17:57:48.902Z,99928.13
2023-12-30T18:00:15.891Z,99927.16
2023-12-30T18:02:43.791Z,99937.34
2023-12-30T18:05:11.226Z,99935.63
2023-12-30T18:07:38.337Z,99937.28
2023-12-30T18:10:05.599Z,99939.88
2023-12-30T18:12:32.605Z,99942.97
2023-12-30T18:14:59.679Z,99941.91
2023-12-30T18:17:28.863Z,99939.88
2023-12-30T18:19:55.899Z,99936.56
2023-12-30T18:22:23.038Z,99937.94
2023-12-30T18:24:49.953Z,99933.56
2023-12-30T18:27:16.719Z,99941.19
2023-12-30T18:29:43.581Z,99933.44
2023-12-30T18:32:11.859Z,99926.44
2023-12-30T18:34:42.043Z,99919.19
2023-12-30T18:37:08.978Z,99911.53
2023-12-30T18:39:36.339Z,99929.50
2023-12-30T18:42:03.601Z,99921.78
2023-12-30T18:44:30.851Z,99920.28
2023-12-30T18:46:58.788Z,99925.66
2023-12-30T18:49:25.780Z,99926.72
2023-12-30T18:51:52.640Z,99923.34
2023-12-30T18:54:19.448Z,99921.00
2023-12-30T18:56:47.127Z,99918.97
2023-12-30T18:59:14.209Z,99921.31
2023-12-30T19:01:46.319Z,99919.75
2023-12-30T19:04:13.977Z,99922.63
2023-12-30T19:06:40.974Z,99924.75
2023-12-30T19:09:08.802Z,99908.91
2023-12-30T19:11:36.332Z,99923.75
2023-12-30T19:14:03.159Z,99922.22
2023-12-30T19:16:30.110Z,99927.44
2023-12-30T19:18:57.366Z,99935.75
2023-12-30T19:21:24.428Z,99925.03
2023-12-30T19:23:51.238Z,99928.41
2023-12-30T19:26:18.102Z,99927.84
2023-12-30T19:28:44.884Z,99928.28
2023-12-30T19:31:14.594Z,99932.34
2023-12-30T19:33:43.127Z,99932.88
2023-12-30T19:36:11.496Z,99931.00
2023-12-30T19:38:39.057Z,99928.19
2023-12-30T19:41:06.161Z,99930.59
2023-12-30T19:43:35.325Z,99926.72
2023-12-30T19:46:06.885Z,99926.22
2023-12-30T19:48:35.072Z,99931.53
2023-12-30T19:51:04.897Z,99931.38
2023-12-30T19:53:32.528Z,99925.59
2023-12-30T19:55:59.253Z,99929.94
2023-12-30T19:58:27.817Z,99931.06
2023-12-30T20:00:54.964Z,99931.22
2023-12-30T20:03:21.850Z,99931.28
2023-12-30T20:05:48.819Z,99933.97
2023-12-30T20:08:16.047Z,99929.13
2023-12-30T20:10:44.092Z,99932.53
2023-12-30T20:13:11.331Z,99930.78
2023-12-30T20:15:38.544Z,99923.72
2023-12-30T20:18:06.097Z,99930.28
2023-12-30T20:20:33.189Z,99924.34
2023-12-30T20:23:01.076Z,99926.47
2023-12-30T20:25:31.004Z,99919.47
2023-12-30T20:27:58.846Z,99914.31
2023-12-30T20:30:27.540Z,99908.63
2023-12-30T20:32:54.881Z,99914.25
2023-12-30T20:35:22.058Z,99913.59
2023-12-30T20:37:48.950Z,99910.38
2023-12-30T20:40:16.507Z,99919.97
2023-12-30T20:42:43.318Z,99915.72
2023-12-30T20:45:11.224Z,99917.28
2023-12-30T20:47:38.794Z,99909.69
2023-12-30T20:50:06.193Z,99913.81
2023-12-30T20:52:33.326Z,99915.06
2023-12-30T20:55:04.353Z,99921.13
2023-12-30T20:57:31.839Z,99917.81
2023-12-30T20:59:58.832Z,99918.34
2023-12-30T21:02:26.061Z,99915.25
2023-12-30T21:04:55.470Z,99914.47
2023-12-30T21:07:22.628Z,99919.91
2023-12-30T21:09:49.798Z,99921.41
2023-12-30T21:12:16.876Z,99921.88
2023-12-30T21:14:43.902Z,99918.81
2023-12-30T21:17:11.300Z,99919.84
2023-12-30T21:19:38.460Z,99916.72
2023-12-30T21:22:06.612Z,99910.25
2023-12-30T21:24:33.726Z,99922.25
2023-12-30T21:27:00.823Z,99921.41
2023-12-30T21:29:27.887Z,99926.53
2023-12-30T21:31:55.895Z,99928.53
2023-12-30T21:34:23.105Z,99923.53
2023-12-30T21:36:50.200Z,99920.66
2023-12-30T21:39:18.527Z,99925.59
2023-12-30T21:41:45.504Z,99926.84
2023-12-30T21:44:12.399Z,99924.72
2023-12-30T21:46:46.402Z,99921.63
2023-12-30T21:49:15.892Z,99916.91
2023-12-30T21:51:44.044Z,99919.31
2023-12-30T21:54:11.492Z,99916.47
2023-12-30T21:56:38.325Z,99919.09
2023-12-30T21:59:05.304Z,99916.69
2023-12-30T22:01:32.863Z,99921.16
2023-12-30T22:03:59.910Z,99919.88
2023-12-30T22:06:26.776Z,99922.78
2023-12-30T22:08:53.963Z,99916.56
2023-12-30T22:11:21.002Z,99914.03
2023-12-30T22:13:48.150Z,99911.47
2023-12-30T22:16:14.984Z,99914.63
2023-12-30T22:18:42.111Z,99912.59
2023-12-30T22:21:09.215Z,99907.91
2023-12-30T22:23:37.347Z,99911.59
2023-12-30T22:26:04.286Z,99900.19
2023-12-30T22:28:31.301Z,99900.75
2023-12-30T22:30:58.388Z,99896.28
2023-12-30T22:33:26.126Z,99896.38
2023-12-30T22:35:53.217Z,99896.59
2023-12-30T22:38:20.293Z,99894.25
2023-12-30T22:40:47.044Z,99895.03
2023-12-30T22:43:13.887Z,99889.53
2023-12-30T22:45:42.086Z,99892.94
2023-12-30T22:48:09.224Z,99888.19
2023-12-30T22:50:36.512Z,99883.22
2023-12-30T22:53:04.065Z,99888.63
2023-12-30T22:55:31.378Z,99893.84
2023-12-30T22:57:58.368Z,99893.84
2023-12-30T23:00:28.570Z,99894.88
2023-12-30T23:02:56.217Z,99894.41
2023-12-30T23:05:23.481Z,99900.19
2023-12-30T23:07:50.499Z,99909.88
2023-12-30T23:10:17.605Z,99895.28
2023-12-30T23:12:44.938Z,99898.19
2023-12-30T23:15:13.217Z,99892.75
2023-12-30T23:17:39.970Z,99892.75
2023-12-30T23:20:10.164Z,99895.06
2023-12-30T23:22:37.009Z,99889.09
2023-12-30T23:25:06.271Z,99898.75
2023-12-30T23:27:33.926Z,99889.09
2023-12-30T23:30:04.578Z,99890.66
2023-12-30T23:32:33.881Z,99894.81
2023-12-30T23:35:01.486Z,99885.72
2023-12-30T23:37:28.503Z,99889.66
2023-12-30T23:39:55.686Z,99890.44
2023-12-30T23:42:22.680Z,99879.00
2023-12-30T23:44:49.708Z,99887.13
2023-12-30T23:47:16.680Z,99885.56
2023-12-30T23:49:43.758Z,99874.38
2023-12-30T23:52:10.933Z,99875.41
2023-12-30T23:54:38.001Z,99870.72
2023-12-30T23:57:05.284Z,99881.19
2023-12-30T23:59:32.094Z,99883.06
